createdAt,value
2022-09-18T00:04:35.164Z,0.87
2022-09-18T00:10:00.269Z,0.64
2022-09-18T00:15:23.823Z,0.71
2022-09-18T00:20:47.689Z,0.65
2022-09-18T00:26:10.480Z,0.68
2022-09-18T00:31:35.573Z,0.73
2022-09-18T00:36:58.724Z,0.60
2022-09-18T00:42:23.673Z,0.75
2022-09-18T00:47:51.663Z,0.71
2022-09-18T00:53:18.539Z,0.97
2022-09-18T00:58:42.932Z,0.88
2022-09-18T01:04:08.935Z,0.99
2022-09-18T01:09:38.898Z,0.66
2022-09-18T01:15:06.029Z,0.58
2022-09-18T01:20:34.897Z,0.58
2022-09-18T01:26:05.731Z,0.58
2022-09-18T01:31:35.273Z,0.73
2022-09-18T01:37:01.147Z,0.75
2022-09-18T01:42:23.133Z,1.10
2022-09-18T01:47:46.719Z,0.64
2022-09-18T01:53:13.696Z,0.55
2022-09-18T01:58:37.134Z,0.78
2022-09-18T02:04:00.795Z,0.63
2022-09-18T02:09:24.174Z,0.69
2022-09-18T02:14:51.233Z,0.75
2022-09-18T02:20:18.029Z,0.87
2022-09-18T02:25:42.136Z,0.52
2022-09-18T02:31:07.934Z,0.69
2022-09-18T02:36:34.290Z,0.67
2022-09-18T02:42:10.041Z,0.68
2022-09-18T02:47:40.364Z,0.89
2022-09-18T02:53:11.925Z,0.72
2022-09-18T02:58:40.075Z,1.17
2022-09-18T03:04:03.043Z,0.54
2022-09-18T03:09:26.746Z,0.71
2022-09-18T03:14:49.600Z,0.79
2022-09-18T03:20:10.975Z,0.80
2022-09-18T03:25:34.944Z,0.73
2022-09-18T03:30:58.400Z,0.71
2022-09-18T03:36:24.778Z,0.72
2022-09-18T03:41:51.119Z,0.61
2022-09-18T03:47:14.830Z,0.79
2022-09-18T03:52:42.109Z,0.54
2022-09-18T03:58:08.994Z,0.56
2022-09-18T04:03:35.046Z,0.59
2022-09-18T04:08:58.858Z,0.76
2022-09-18T04:14:25.609Z,0.58
2022-09-18T04:19:53.257Z,0.82
2022-09-18T04:25:16.686Z,0.65
2022-09-18T04:30:41.065Z,0.74
2022-09-18T04:36:03.818Z,0.62
2022-09-18T04:41:31.343Z,0.55
2022-09-18T04:46:54.262Z,0.53
2022-09-18T04:52:20.619Z,0.66
2022-09-18T04:57:45.469Z,0.55
2022-09-18T05:03:12.497Z,0.53
2022-09-18T05:08:35.718Z,0.72
2022-09-18T05:14:02.597Z,0.49
2022-09-18T05:19:26.377Z,0.55
2022-09-18T05:24:50.007Z,0.56
2022-09-18T05:30:15.873Z,0.56
2022-09-18T05:35:43.126Z,0.46
2022-09-18T05:41:09.655Z,0.66
2022-09-18T05:46:36.459Z,0.58
2022-09-18T05:52:03.115Z,0.63
2022-09-18T05:57:25.919Z,0.82
2022-09-18T06:02:47.087Z,0.56
2022-09-18T06:08:11.214Z,0.59
2022-09-18T06:13:37.029Z,0.83
2022-09-18T06:19:02.214Z,0.59
2022-09-18T06:24:26.563Z,0.62
2022-09-18T06:29:51.972Z,0.69
2022-09-18T06:35:14.729Z,0.74
2022-09-18T06:40:39.303Z,0.80
2022-09-18T06:46:09.429Z,0.84
2022-09-18T06:51:36.576Z,1.30
2022-09-18T06:57:02.443Z,0.78
2022-09-18T07:02:28.644Z,0.61
2022-09-18T07:07:51.915Z,0.55
2022-09-18T07:13:18.466Z,0.48
2022-09-18T07:18:45.063Z,0.46
2022-09-18T07:24:11.781Z,0.60
2022-09-18T07:29:34.839Z,0.52
2022-09-18T07:35:01.997Z,0.43
2022-09-18T07:40:29.493Z,0.51
2022-09-18T07:45:55.771Z,0.59
2022-09-18T07:51:22.944Z,0.59
2022-09-18T07:56:47.012Z,0.76
2022-09-18T08:02:08.336Z,0.79
2022-09-18T08:07:35.574Z,0.49
2022-09-18T08:13:01.599Z,0.54
2022-09-18T08:18:27.647Z,0.71
2022-09-18T08:23:55.235Z,0.57
2022-09-18T08:29:19.581Z,0.49
2022-09-18T08:34:47.164Z,0.40
2022-09-18T08:40:14.516Z,0.42
2022-09-18T08:45:39.411Z,0.24
2022-09-18T08:51:06.993Z,0.39
2022-09-18T08:56:36.616Z,0.40
2022-09-18T09:02:03.235Z,0.51
2022-09-18T09:07:41.672Z,0.66
2022-09-18T09:13:27.320Z,0.50
2022-09-18T09:19:18.688Z,0.54
2022-09-18T09:24:45.141Z,0.43
2022-09-18T09:30:11.803Z,0.66
2022-09-18T09:35:37.438Z,0.73
2022-09-18T09:41:03.962Z,0.61
2022-09-18T09:46:32.273Z,0.50
2022-09-18T09:52:09.555Z,0.60
2022-09-18T09:57:29.521Z,0.67
2022-09-18T10:02:51.665Z,0.34
2022-09-18T10:08:17.511Z,0.56
2022-09-18T10:13:39.531Z,0.53
2022-09-18T10:19:01.310Z,0.54
2022-09-18T10:24:24.496Z,0.35
2022-09-18T10:29:47.565Z,0.42
2022-09-18T10:35:13.383Z,0.37
2022-09-18T10:40:53.132Z,0.81
2022-09-18T10:46:38.862Z,0.69
2022-09-18T10:52:14.234Z,0.35
2022-09-18T10:57:50.554Z,0.28
2022-09-18T11:03:25.625Z,0.33
2022-09-18T11:09:04.643Z,0.54
2022-09-18T11:14:29.886Z,0.50
2022-09-18T11:19:57.216Z,0.59
2022-09-18T11:25:24.571Z,0.75
2022-09-18T11:30:47.040Z,0.52
2022-09-18T11:36:13.056Z,0.69
2022-09-18T11:41:37.724Z,0.46
2022-09-18T11:47:00.192Z,0.51
2022-09-18T11:52:45.044Z,0.58
2022-09-18T11:58:11.404Z,0.55
2022-09-18T12:03:38.164Z,0.47
2022-09-18T12:09:01.838Z,0.52
2022-09-18T12:14:27.171Z,0.38
2022-09-18T12:19:52.737Z,0.44
2022-09-18T12:25:16.127Z,0.43
2022-09-18T12:30:39.088Z,0.69
2022-09-18T12:36:08.323Z,0.61
2022-09-18T12:41:51.984Z,0.37
2022-09-18T12:47:19.558Z,0.53
2022-09-18T12:53:08.630Z,0.46
2022-09-18T12:58:20.388Z,0.52
2022-09-18T13:04:01.322Z,0.42
2022-09-18T13:09:28.250Z,0.40
2022-09-18T13:14:49.918Z,0.50
2022-09-18T13:20:16.176Z,0.40
2022-09-18T13:25:40.416Z,0.51
2022-09-18T13:31:03.783Z,0.51
2022-09-18T13:36:44.921Z,0.42
2022-09-18T13:42:12.006Z,0.61
2022-09-18T13:47:41.216Z,0.57
2022-09-18T13:53:14.285Z,3.00
2022-09-18T13:58:57.071Z,0.36
2022-09-18T14:04:19.176Z,0.42
2022-09-18T14:10:18.400Z,0.54
2022-09-18T14:15:50.845Z,0.54
2022-09-18T14:21:17.586Z,0.59
2022-09-18T14:26:44.126Z,1.03
2022-09-18T14:32:21.530Z,0.54
2022-09-18T14:37:48.582Z,0.61
2022-09-18T14:43:16.032Z,0.44
2022-09-18T14:48:43.021Z,0.48
2022-09-18T14:54:09.975Z,0.57
2022-09-18T14:59:33.780Z,0.57
2022-09-18T15:04:55.510Z,0.89
2022-09-18T15:10:18.289Z,0.64
2022-09-18T15:15:44.140Z,0.58
2022-09-18T15:21:13.817Z,0.63
2022-09-18T15:26:40.297Z,0.59
2022-09-18T15:32:07.869Z,0.54
2022-09-18T15:37:36.615Z,0.48
2022-09-18T15:43:03.527Z,0.66
2022-09-18T15:48:42.156Z,0.49
2022-09-18T15:54:06.904Z,0.75
2022-09-18T15:59:45.904Z,0.44
2022-09-18T16:05:12.981Z,0.50
2022-09-18T16:10:38.581Z,0.45
2022-09-18T16:16:08.840Z,0.58
2022-09-18T16:21:39.630Z,0.50
2022-09-18T16:27:05.275Z,0.41
2022-09-18T16:32:33.436Z,0.42
2022-09-18T16:37:59.365Z,0.48
2022-09-18T16:43:25.094Z,0.42
2022-09-18T16:48:50.325Z,0.42
2022-09-18T16:54:16.914Z,0.48
2022-09-18T16:59:43.657Z,0.50
2022-09-18T17:05:09.173Z,0.48
2022-09-18T17:10:34.001Z,0.48
2022-09-18T17:16:01.932Z,0.56
2022-09-18T17:21:26.423Z,0.35
2022-09-18T17:26:48.047Z,0.75
2022-09-18T17:32:14.721Z,0.45
2022-09-18T17:37:41.030Z,0.65
2022-09-18T17:43:05.023Z,0.70
2022-09-18T17:48:30.367Z,0.56
2022-09-18T17:53:56.175Z,0.70
2022-09-18T17:59:22.484Z,2.21
2022-09-18T18:04:45.185Z,6.17
2022-09-18T18:10:10.122Z,5.64
2022-09-18T18:15:32.626Z,2.54
2022-09-18T18:20:57.653Z,2.43
2022-09-18T18:26:21.937Z,2.06
2022-09-18T18:31:47.122Z,1.91
2022-09-18T18:37:13.762Z,2.19
2022-09-18T18:42:38.277Z,2.24
2022-09-18T18:48:06.375Z,1.43
2022-09-18T18:53:27.201Z,2.29
2022-09-18T18:58:51.496Z,1.65
2022-09-18T19:04:17.351Z,2.29
2022-09-18T19:09:41.925Z,2.25
2022-09-18T19:15:06.149Z,1.79
2022-09-18T19:20:33.292Z,1.70
2022-09-18T19:25:57.517Z,1.88
2022-09-18T19:31:24.897Z,1.86
2022-09-18T19:36:50.742Z,1.82
2022-09-18T19:42:13.562Z,2.07
2022-09-18T19:47:37.753Z,2.24
2022-09-18T19:53:04.322Z,1.72
2022-09-18T19:58:30.333Z,0.92
2022-09-18T20:03:52.377Z,1.20
2022-09-18T20:09:17.374Z,0.95
2022-09-18T20:14:39.904Z,1.08
2022-09-18T20:20:03.121Z,0.38
2022-09-18T20:25:27.690Z,0.21
2022-09-18T20:30:52.833Z,0.18
2022-09-18T20:36:17.235Z,0.27
2022-09-18T20:41:39.302Z,0.34
2022-09-18T20:47:06.983Z,0.23
2022-09-18T20:52:33.095Z,0.41
2022-09-18T20:58:02.119Z,0.29
2022-09-18T21:03:20.860Z,0.39
2022-09-18T21:08:46.186Z,0.31
2022-09-18T21:14:11.371Z,0.41
2022-09-18T21:19:36.511Z,0.31
2022-09-18T21:25:02.428Z,0.29
2022-09-18T21:30:26.435Z,0.31
2022-09-18T21:35:51.167Z,0.34
2022-09-18T21:41:21.543Z,0.26
2022-09-18T21:46:46.805Z,0.40
2022-09-18T21:52:11.261Z,0.44
2022-09-18T21:57:38.027Z,0.55
2022-09-18T22:03:04.322Z,0.57
2022-09-18T22:08:28.465Z,0.35
2022-09-18T22:13:54.709Z,0.46
2022-09-18T22:19:16.728Z,0.51
2022-09-18T22:24:39.631Z,0.41
2022-09-18T22:30:04.377Z,0.46
2022-09-18T22:35:32.051Z,0.45
2022-09-18T22:40:57.351Z,0.43
2022-09-18T22:46:21.845Z,0.51
2022-09-18T22:51:48.736Z,0.40
2022-09-18T22:57:15.946Z,0.41
2022-09-18T23:02:39.087Z,0.42
2022-09-18T23:08:05.315Z,0.39
2022-09-18T23:13:29.684Z,0.39
2022-09-18T23:18:54.079Z,0.51
2022-09-18T23:24:17.193Z,0.99
2022-09-18T23:29:39.751Z,0.98
2022-09-18T23:35:02.514Z,1.01
2022-09-18T23:40:28.273Z,0.85
2022-09-18T23:45:51.801Z,0.66
2022-09-18T23:51:18.507Z,0.73
2022-09-18T23:56:41.692Z,0.60
